METAR Data
IDs: Format: Raw Decoded Include TAF

Data at: 1551 UTC 18 Aug 2019

PAKT 181453Z 31012G19KT 7SM -RA SCT020 OVC032 09/08 A2952 RMK SLP997 HARBOR WIND 29023KT P0002 60009 T00940083 53008 VIA AUTODIAL
PAKT 181410Z 31010G18KT 270V340 7SM -RA SCT020 OVC030 10/09 A2952 RMK HARBOR WIND 29017KT P0001 T01000089 VIA AUTODIAL
PAKT 181353Z AUTO 31013G22KT 9SM -RA BKN016 OVC023 10/09 A2951 RMK SLP992 P0006 T01000089 TSNO VIA AUTODIAL
PAKT 181320Z AUTO 31014G23KT 4SM -RA BR OVC017 11/09 A2951 RMK P0004 T01060094 TSNO VIA AUTODIAL
PAKT 181253Z AUTO 31012G20KT 7SM -RA BKN014 OVC019 11/10 A2950 RMK RAE16B35 SLP991 P0001 T01060100 TSNO VIA AUTODIAL
PAKT 181251Z AUTO 31012G20KT 7SM -RA BKN014 OVC019 11/10 A2950 RMK RAE16B35 P0001 TSNO VIA AUTODIAL
PAKT 181153Z AUTO 30009G17KT 8SM -RA BKN018 OVC040 12/11 A2950 RMK RAB03 SLP989 P0001 60005 70013 T01170111 10144 20117 56012 TSNO VIA AUTODIAL
PAKT 181133Z AUTO 30009G17KT 7SM -RA SCT010 BKN018 OVC040 12/11 A2950 RMK RAB03 P0001 T01170111 TSNO VIA AUTODIAL
PAKT 181114Z AUTO 32008KT 5SM -RA BR SCT004 BKN012 OVC019 13/12 A2950 RMK RAB03 P0000 T01280122 TSNO VIA AUTODIAL
PAKT 181053Z AUTO 07003KT 10SM BKN004 BKN022 OVC038 14/14 A2950 RMK SLP990 T01440144 TSNO VIA AUTODIAL
PAKT 181018Z AUTO 12005KT 10SM BKN004 BKN016 OVC055 14/14 A2951 RMK T01440144 TSNO VIA AUTODIAL
PAKT 181010Z AUTO 11004KT 10SM FEW007 BKN032 OVC055 14/14 A2951 RMK T01440144 TSNO VIA AUTODIAL
PAKT 181000Z AUTO 13004KT 10SM SCT012 BKN019 OVC039 14/14 A2951 RMK T01440139 TSNO VIA AUTODIAL
PAKT 180953Z AUTO 13004KT 10SM BKN012 BKN020 OVC041 14/14 A2951 RMK RAE00B09E29 SLP994 P0001 T01440139 TSNO VIA AUTODIAL
PAKT 180935Z AUTO 13004KT 10SM BKN012 BKN016 OVC041 14/14 A2952 RMK RAE00B09E29 P0001 T01390139 TSNO VIA AUTODIAL
PAKT 180922Z AUTO 13005KT 6SM -RA BR FEW004 BKN015 OVC039 14/14 A2952 RMK RAE00B09 P0001 T01440139 TSNO VIA AUTODIAL
PAKT 180903Z AUTO 14004KT 5SM BR BKN004 OVC019 14/14 A2953 RMK RAE00 P0000 T01390139 TSNO VIA AUTODIAL
PAKT 180853Z AUTO 13006KT 2 1/2SM -RA BR OVC004 14/14 A2953 RMK RAB12E28B46 SLP001 P0001 60003 T01390139 401720139 58017 TSNO VIA AUTODIAL
PAKT 180851Z AUTO 13006KT 2 1/2SM -RA BR OVC004 14/14 A2953 RMK RAB12E28B46 P0001 TSNO VIA AUTODIAL
PAKT 180837Z AUTO 13008KT 3SM BR OVC004 14/14 A2954 RMK RAB12E28 P0001 T01390139 TSNO VIA AUTODIAL
PAKT 180806Z AUTO 13009KT 7SM BKN005 OVC023 14/14 A2955 RMK T01390139 TSNO VIA AUTODIAL
PAKT 180753Z AUTO 14009KT 9SM FEW006 SCT018 OVC023 14/14 A2956 RMK RAE29 SLP009 P0001 T01440139 TSNO VIA AUTODIAL
PAKT 180653Z AUTO 14006KT 6SM -RA BR FEW007 OVC019 14/14 A2958 RMK RAB0557E26B48 SLP016 P0001 T01440139 TSNO VIA AUTODIAL
PAKT 180638Z AUTO 13007KT 10SM SCT007 OVC019 14/14 A2958 RMK RAB0557E26 P0001 T01440139 TSNO VIA AUTODIAL
PAKT 180553Z AUTO 14008KT 7SM OVC021 14/13 A2958 RMK RAB13E41 SLP018 P0000 60001 T01390133 10156 20139 58020 TSNO VIA AUTODIAL
PAKT 180453Z 13010KT 6SM BR SCT007 BKN020 OVC040 14/14 A2961 RMK RAB18E35 SLP026 HARBOR WND 13016KT P0000 T01390139 VIA AUTODIAL
PAKT 180353Z 12010KT 8SM SCT008 BKN017 OVC035 15/14 A2962 RMK SLP031 HARBOR WND 12016KT T01500139 VIA AUTODIAL
PAKT 180253Z 11011KT 10SM FEW008 BKN021 OVC050 16/14 A2964 RMK SLP038 HARBOR WND 12013KT 60001 T01560139 58018 VIA AUTODIAL
PAKT 180153Z 16007KT 10SM BKN020 OVC055 15/14 A2966 RMK RAE19 SLP046 HARBOR WIND 14013KT P0000 T01500139 VIA AUTODIAL
PAKT 180053Z 15006KT 10SM -RA BKN023 BKN034 OVC055 16/13 A2969 RMK RAB30 SLP053 HARBOR WIND 14012KT P0001 T01560128 VIA AUTODIAL
PAKT 172353Z 14007KT 10SM OVC017 16/14 A2969 RMK SLP056 HARBOR WIND 14016KT 60007 T01560139 10172 20156 58020 VIA AUTODIAL
PAKT 172253Z 13008KT 10SM BKN019 OVC055 16/14 A2972 RMK RAB2155E33 SLP065 HARBOR WIND 13014KT P0004 T01560144 VIA AUTODIAL
PAKT 172251Z 13008KT 10SM BKN019 OVC055 16/15 A2973 RMK RAB2155E33 HARBOR WIND 13014KT P0004 VIA AUTODIAL
PAKT 172153Z 12009KT 9SM FEW019 BKN030 OVC036 16/14 A2975 RMK RAE13B22E31 SLP073 HARBOR WIND 14014KT P0003 T01610144 VIA AUTODIAL
PAKT 172148Z 12009KT 10SM SCT019 BKN030 OVC038 16/15 A2975 RMK RAE13B22E31 HARBOR WIND 14014KT P0003 VIA AUTODIAL
PAKT 172113Z 13008KT 5SM BR BKN021 OVC030 16/15 A2977 RMK RAE13 P0003 T01610150 VIA AUTODIAL
PAKT 172057Z COR 14006KT 5SM R11/4000VP6000FT RA BR BKN021 OVC030 16/14 A2977 RMK P0002 T01610144 VIA AUTODIAL
PAKT 172053Z 14006KT 4SM R11/4500VP6000FT -RA BR SCT021 BKN028 OVC034 16/14 A2977 RMK RAB52 SLP081 HARBOR WIND 13015KT P0000 60000 T01610139 56020 VIA AUTODIAL
PAKT 172051Z 15006KT 8SM SCT021 BKN028 OVC035 17/14 A2977 RMK VIA AUTODIAL
PAKT 171953Z 15008KT 10SM SCT026 BKN032 OVC047 17/14 A2978 RMK SLP083 HARBOR WIND 13014KT T01670139 VIA AUTODIAL
PAKT 171853Z 11010KT 10SM SCT027 OVC040 17/13 A2981 RMK RAE04 SLP094 HARBOR WIND 09013KT P0000 T01670133 VIA AUTODIAL
PAKT 171827Z 11010KT 10SM FEW023 OVC040 17/13 A2982 RMK RAE04 P0000 T01670133 VIA AUTODIAL
PAKT 171800Z 12008KT 10SM -RA OVC023 17/13 A2983 RMK P0000 T01720128 VIA AUTODIAL
PAKT 171753Z 11008KT 10SM -RA OVC037 17/13 A2983 RMK RAB41 SLP101 P0000 60000 T01720133 10172 20156 56019 VIA AUTODIAL
PAKT 171653Z 13007KT 10SM OVC037 17/13 A2984 RMK SLP106 HARBOR WIND 11007KT T01670128 VIA AUTODIAL
PAKT 171553Z 14003KT 10SM SCT023 OVC033 16/13 A2987 RMK SLP113 HARBOR WIND 25006KT T01610133 VIA AUTODIAL
PAKT 171453Z 00000KT 10SM SCT025 OVC040 16/13 A2989 RMK SLP120 HARBOR WIND 27010KT T01610133 56021 VIA AUTODIAL
PAKT 171413Z 00000KT 10SM SCT025 OVC040 16/13 A2990 RMK HARBOR WIND 27010KT T01610128 VIA AUTODIAL
PAKT 171353Z AUTO VRB04KT 10SM OVC042 16/13 A2991 RMK SLP126 T01610128 TSNO VIA AUTODIAL
PAKT 171253Z AUTO 34007KT 10SM OVC046 17/13 A2992 RMK SLP133 T01670128 TSNO VIA AUTODIAL
PAKT 171153Z AUTO 35006KT 10SM OVC046 17/13 A2995 RMK SLP141 T01670128 10178 20167 58018 TSNO VIA AUTODIAL
PAKT 171053Z AUTO 33006KT 10SM OVC043 17/13 A2997 RMK SLP147 T01720128 TSNO VIA AUTODIAL
PAKT 170953Z AUTO 30005KT 10SM OVC050 17/13 A2999 RMK SLP154 T01720128 TSNO VIA AUTODIAL
PAKT 170853Z AUTO 34006KT 10SM OVC047 17/13 A3000 RMK SLP159 T01720128 402220156 58016 TSNO VIA AUTODIAL
PAKT 170753Z AUTO 34006KT 10SM OVC046 17/13 A3002 RMK SLP165 T01720133 TSNO VIA AUTODIAL
PAKT 170653Z AUTO 31004KT 10SM BKN032 OVC042 18/13 A3004 RMK SLP171 T01780128 TSNO VIA AUTODIAL
PAKT 170553Z AUTO 33004KT 10SM OVC045 18/13 A3005 RMK SLP175 T01780133 10222 20178 56013 TSNO VIA AUTODIAL
PAKT 170453Z 33005KT 10SM OVC043 18/14 A3007 RMK SLP181 HARBOR WIND 31010KT T01830139 VIA AUTODIAL
PAKT 170353Z 31003KT 10SM BKN043 18/13 A3006 RMK SLP180 HARBOR WIND 30010KT T01830128 VIA AUTODIAL